Terminal Aerodrome Forecast
Issued by NWS Duluth, MN

Home | Current Version | Previous Version | Text Only | Print | Product List | Glossary On
Versions: 1 2 3 4 5 6 7 8 9 10 11 12 13 14 15 16 17 18 19 20
000
FTUS43 KDLH 051120
TAFDLH
TAF
KDLH 051120Z 0512/0612 16004KT 5SM BR BKN040 WS018/23030KT
     FM051300 18010KT P6SM SCT200
     FM051700 19012G20KT P6SM FEW200
     FM052100 10010KT P6SM VCTS BKN050CB
     FM060400 21011KT 5SM TSRA OVC025CB=

USA.gov is the U.S. government's official web portal to all federal, state and local government web resources and services.